Time;durP1;ratioP1;P1;durP2;ratioP2;P2;SDS_P1;SDS_P2;PMS_P1;PMS_P2;Temp;Humidity;BMP_temperature;BMP_pressure;BME280_temperature;BME280_humidity;BME280_pressure;Samples;Min_cycle;Max_cycle;Signal;HPM_P1;HPM_P2
2023/12/19 00:01:35;;;;;;;0.40;0.40;;;;;;;7.69;100.00;101628.78;5001765;28;20045;-76
2023/12/19 00:04:03;;;;;;;0.45;0.45;;;;;;;7.64;100.00;101633.69;5018404;28;20033;-76
2023/12/19 00:06:29;;;;;;;0.40;0.40;;;;;;;7.64;100.00;101625.66;5001270;28;20030;-76
2023/12/19 00:08:55;;;;;;;0.40;0.40;;;;;;;7.63;100.00;101626.66;5017784;28;20040;-76
2023/12/19 00:11:21;;;;;;;0.50;0.50;;;;;;;7.60;100.00;101621.56;5001272;28;20056;-76
2023/12/19 00:13:47;;;;;;;0.40;0.40;;;;;;;7.62;100.00;101624.94;5017792;28;20025;-76
2023/12/19 00:16:12;;;;;;;0.40;0.40;;;;;;;7.63;100.00;101623.97;5017532;28;20045;-76
2023/12/19 00:18:38;;;;;;;0.40;0.40;;;;;;;7.64;100.00;101622.97;5017643;28;20464;-76
2023/12/19 00:21:04;;;;;;;0.40;0.40;;;;;;;7.64;100.00;101626.50;5033623;28;20365;-76
2023/12/19 00:23:30;;;;;;;0.40;0.40;;;;;;;7.64;100.00;101620.31;5017610;28;20037;-76
2023/12/19 00:26:00;;;;;;;0.40;0.40;;;;;;;7.62;100.00;101619.59;5017449;28;20464;-76
2023/12/19 00:28:27;;;;;;;0.43;0.43;;;;;;;7.58;100.00;101612.81;5017104;28;20034;-76
2023/12/19 00:30:56;;;;;;;0.40;0.40;;;;;;;7.52;100.00;101598.16;5033523;28;20040;-76
2023/12/19 00:33:22;;;;;;;0.40;0.40;;;;;;;7.56;100.00;101601.41;5001157;28;20508;-76
2023/12/19 00:35:48;;;;;;;0.50;0.50;;;;;;;7.56;100.00;101606.75;5001093;28;20120;-76
2023/12/19 00:38:13;;;;;;;0.40;0.40;;;;;;;7.57;100.00;101617.34;5017288;28;20124;-76
2023/12/19 00:40:42;;;;;;;0.40;0.40;;;;;;;7.57;100.00;101601.28;5017332;28;20071;-76
2023/12/19 00:43:07;;;;;;;0.40;0.40;;;;;;;7.58;100.00;101602.13;5001014;28;20068;-76
2023/12/19 00:45:33;;;;;;;0.40;0.40;;;;;;;7.61;100.00;101609.88;5017312;28;20464;-76
2023/12/19 00:47:59;;;;;;;0.40;0.40;;;;;;;7.62;100.00;101616.91;5000900;28;20357;-76
2023/12/19 00:50:24;;;;;;;0.40;0.40;;;;;;;7.61;100.00;101617.91;5016446;28;20047;-77
2023/12/19 00:52:50;;;;;;;0.40;0.40;;;;;;;7.62;100.00;101608.88;5000775;28;20033;-76
2023/12/19 00:55:16;;;;;;;0.40;0.40;;;;;;;7.64;100.00;101612.28;5034287;28;20022;-76
2023/12/19 00:57:41;;;;;;;0.40;0.40;;;;;;;7.64;100.00;101614.94;5016740;28;20052;-76
2023/12/19 01:00:08;;;;;;;0.40;0.40;;;;;;;7.65;100.00;101614.00;5000527;28;20083;-76
2023/12/19 01:02:34;;;;;;;0.40;0.40;;;;;;;7.66;100.00;101613.00;5016275;28;20125;-77
2023/12/19 01:05:00;;;;;;;0.40;0.40;;;;;;;7.64;100.00;101615.78;5000520;28;20083;-76
2023/12/19 01:07:25;;;;;;;0.40;0.40;;;;;;;7.69;100.00;101620.75;5000719;28;20052;-76
2023/12/19 01:09:54;;;;;;;0.40;0.40;;;;;;;7.71;100.00;101618.78;4999735;28;20114;-76
2023/12/19 01:12:20;;;;;;;0.40;0.40;;;;;;;7.72;100.00;101605.25;5000847;28;20132;-76
2023/12/19 01:14:48;;;;;;;0.40;0.40;;;;;;;7.72;100.00;101599.06;5017280;28;20025;-77
2023/12/19 01:17:14;;;;;;;0.40;0.40;;;;;;;7.74;100.00;101596.25;5016316;28;20041;-77
2023/12/19 01:19:39;;;;;;;0.40;0.40;;;;;;;7.76;100.00;101594.28;5016339;28;20029;-76
2023/12/19 01:22:08;;;;;;;0.40;0.40;;;;;;;7.75;100.00;101585.41;5016416;28;20463;-76
2023/12/19 01:24:34;;;;;;;0.40;0.40;;;;;;;7.77;100.00;101586.09;5000103;28;20049;-77
2023/12/19 01:27:00;;;;;;;0.40;0.40;;;;;;;7.79;100.00;101584.16;5000316;28;20045;-76
2023/12/19 01:29:25;;;;;;;0.40;0.40;;;;;;;7.77;100.00;101574.56;5016339;28;20033;-76
2023/12/19 01:31:51;;;;;;;0.40;0.40;;;;;;;7.78;100.00;101571.75;5000012;28;20032;-77
2023/12/19 01:34:17;;;;;;;0.40;0.40;;;;;;;7.79;100.00;101573.44;5016482;28;20034;-77
2023/12/19 01:36:42;;;;;;;0.40;0.40;;;;;;;7.84;100.00;101578.38;4999875;28;20025;-76
2023/12/19 01:39:08;;;;;;;0.40;0.40;;;;;;;7.85;100.00;101569.34;5016216;28;20361;-76
2023/12/19 01:41:34;;;;;;;0.40;0.40;;;;;;;7.87;100.00;101559.38;5000178;28;20029;-76
2023/12/19 01:44:00;;;;;;;0.40;0.40;;;;;;;7.88;100.00;101559.22;4999936;28;20375;-76
2023/12/19 01:46:26;;;;;;;0.40;0.40;;;;;;;7.92;100.00;101565.16;5016203;28;20037;-76
2023/12/19 01:48:53;;;;;;;0.40;0.40;;;;;;;7.95;100.00;101566.72;5016346;28;20087;-76
2023/12/19 01:51:18;;;;;;;0.40;0.40;;;;;;;7.97;100.00;101559.38;5032283;28;20080;-76
2023/12/19 01:53:49;;;;;;;0.40;0.40;;;;;;;7.97;100.00;101554.88;4983822;28;20439;-76
2023/12/19 01:56:17;;;;;;;0.40;0.40;;;;;;;8.02;100.00;101559.78;4984482;28;20464;-76
2023/12/19 01:58:47;;;;;;;0.40;0.40;;;;;;;8.02;100.00;101557.09;5015856;28;20045;-76
2023/12/19 02:01:19;;;;;;;0.40;0.40;;;;;;;8.01;100.00;101558.94;5016622;28;20041;-76
2023/12/19 02:03:46;;;;;;;0.40;0.40;;;;;;;8.08;100.00;101567.28;4999406;28;20124;-76
2023/12/19 02:06:12;;;;;;;0.40;0.40;;;;;;;8.10;100.00;101557.28;5000882;28;20472;-76
2023/12/19 02:08:38;;;;;;;0.50;0.50;;;;;;;8.12;100.00;101569.56;5020098;28;20040;-76
2023/12/19 02:11:04;;;;;;;0.40;0.40;;;;;;;8.07;100.00;101569.13;5003757;28;20025;-76
2023/12/19 02:13:29;;;;;;;0.40;0.40;;;;;;;8.00;100.00;101580.53;5003578;28;20033;-75
2023/12/19 02:15:55;;;;;;;0.40;0.40;;;;;;;7.89;100.00;101585.03;5003624;28;20041;-76
2023/12/19 02:18:21;;;;;;;0.40;0.40;;;;;;;7.83;100.00;101582.91;5019637;28;20037;-75
2023/12/19 02:20:48;;;;;;;0.40;0.40;;;;;;;7.82;100.00;101588.38;5003633;28;20025;-75
2023/12/19 02:23:14;;;;;;;0.40;0.40;;;;;;;7.81;100.00;101584.88;5003415;28;20037;-75
2023/12/19 02:25:40;;;;;;;0.40;0.40;;;;;;;7.81;100.00;101595.56;5019655;28;20040;-76
2023/12/19 02:28:06;;;;;;;0.40;0.40;;;;;;;7.80;100.00;101590.34;5035552;28;20029;-76
2023/12/19 02:30:34;;;;;;;0.40;0.40;;;;;;;7.78;100.00;101592.31;5003361;28;20064;-75
2023/12/19 02:33:01;;;;;;;0.40;0.40;;;;;;;7.74;100.00;101593.56;5003697;28;20388;-76
2023/12/19 02:35:27;;;;;;;0.40;0.40;;;;;;;7.73;100.00;101590.06;5035430;28;20033;-75
2023/12/19 02:37:52;;;;;;;0.40;0.40;;;;;;;7.73;100.00;101600.78;5019303;28;20040;-75
2023/12/19 02:40:18;;;;;;;0.40;0.40;;;;;;;7.70;100.00;101596.53;5003142;28;20464;-76
2023/12/19 02:42:46;;;;;;;0.40;0.40;;;;;;;7.71;100.00;101610.75;5003222;28;20388;-75
2023/12/19 02:45:13;;;;;;;0.40;0.40;;;;;;;7.71;100.00;101600.06;5019680;28;20037;-75
2023/12/19 02:47:39;;;;;;;0.40;0.40;;;;;;;7.66;100.00;101583.56;5035631;28;20068;-75
2023/12/19 02:50:05;;;;;;;0.40;0.40;;;;;;;7.62;100.00;101582.13;4986961;28;20091;-75
2023/12/19 02:52:31;;;;;;;0.40;0.40;;;;;;;7.53;100.00;101594.50;5003556;28;20033;-75
2023/12/19 02:54:57;;;;;;;0.47;0.47;;;;;;;7.47;100.00;101587.00;5019224;28;20527;-76
2023/12/19 02:57:22;;;;;;;0.40;0.40;;;;;;;7.45;100.00;101581.78;5018667;28;20076;-76
2023/12/19 02:59:48;;;;;;;0.40;0.40;;;;;;;7.45;100.00;101597.84;5002613;28;20079;-75
2023/12/19 03:02:14;;;;;;;0.47;0.47;;;;;;;7.47;100.00;101595.03;5018945;28;20036;-76
2023/12/19 03:04:40;;;;;;;0.40;0.40;;;;;;;7.47;100.00;101603.06;5035471;28;20075;-75
2023/12/19 03:07:09;;;;;;;0.40;0.40;;;;;;;7.45;100.00;101610.38;5002594;28;20047;-76
2023/12/19 03:09:35;;;;;;;0.40;0.40;;;;;;;7.42;100.00;101603.47;5002375;28;20032;-76
2023/12/19 03:12:03;;;;;;;0.40;0.40;;;;;;;7.36;100.00;101590.63;5034994;28;20045;-76
2023/12/19 03:14:33;;;;;;;0.40;0.40;;;;;;;7.31;100.00;101594.69;5018529;28;20113;-76
2023/12/19 03:16:59;;;;;;;0.40;0.40;;;;;;;7.27;100.00;101594.09;5002134;28;20029;-76
2023/12/19 03:19:25;;;;;;;0.40;0.40;;;;;;;7.24;100.00;101583.66;5001687;28;20033;-76
2023/12/19 03:21:51;;;;;;;0.40;0.40;;;;;;;7.19;100.00;101596.59;5002542;28;20537;-76
2023/12/19 03:24:32;;;;;;;0.40;0.40;;;;;;;7.11;100.00;101607.97;5002469;28;20030;-76
2023/12/19 03:26:57;;;;;;;0.40;0.40;;;;;;;7.07;100.00;101621.75;5001998;28;20472;-75
2023/12/19 03:29:23;;;;;;;0.50;0.50;;;;;;;7.07;100.00;101624.41;5018551;28;20041;-76
2023/12/19 03:31:49;;;;;;;0.40;0.40;;;;;;;7.07;100.00;101632.44;5002365;28;20439;-75
2023/12/19 03:34:16;;;;;;;0.40;0.40;;;;;;;7.09;100.00;101628.63;5002289;28;20045;-76
2023/12/19 03:36:42;;;;;;;0.40;0.40;;;;;;;7.08;100.00;101628.78;5002161;28;20029;-76
2023/12/19 03:39:08;;;;;;;0.40;0.40;;;;;;;7.08;100.00;101636.81;5018203;28;20517;-76
2023/12/19 03:41:34;;;;;;;0.50;0.50;;;;;;;7.03;100.00;101635.34;5017997;28;20025;-76
2023/12/19 03:43:59;;;;;;;0.40;0.40;;;;;;;7.01;100.00;101639.13;5002146;28;20036;-76
2023/12/19 03:46:28;;;;;;;0.40;0.40;;;;;;;6.96;100.00;101639.56;5018307;28;20044;-76
2023/12/19 03:48:53;;;;;;;0.40;0.40;;;;;;;6.94;100.00;101648.69;5002026;28;20124;-76
2023/12/19 03:51:19;;;;;;;0.40;0.40;;;;;;;6.94;100.00;101649.53;5017986;28;20068;-76
2023/12/19 03:53:45;;;;;;;0.45;0.45;;;;;;;6.93;100.00;101647.84;5018016;28;20083;-76
2023/12/19 03:56:11;;;;;;;0.40;0.40;;;;;;;6.90;100.00;101642.72;5017357;28;20028;-76
2023/12/19 03:58:41;;;;;;;0.40;0.40;;;;;;;6.86;100.00;101635.13;5001799;28;20041;-76
2023/12/19 04:01:07;;;;;;;0.40;0.40;;;;;;;6.85;100.00;101636.06;5018214;28;20504;-76
2023/12/19 04:03:33;;;;;;;0.40;0.40;;;;;;;6.84;100.00;101621.88;5017633;28;20128;-76
2023/12/19 04:05:58;;;;;;;0.40;0.40;;;;;;;6.83;100.00;101630.88;5001724;28;20034;-76
2023/12/19 04:08:24;;;;;;;0.40;0.40;;;;;;;6.82;100.00;101648.72;5017760;28;20063;-76
2023/12/19 04:10:52;;;;;;;0.40;0.40;;;;;;;6.83;100.00;101641.56;5001631;28;20040;-76
2023/12/19 04:13:18;;;;;;;0.40;0.40;;;;;;;6.84;100.00;101635.25;5034241;28;20030;-76
2023/12/19 04:15:43;;;;;;;0.47;0.47;;;;;;;6.83;100.00;101633.56;5001563;28;20039;-76
2023/12/19 04:18:10;;;;;;;0.40;0.40;;;;;;;6.82;100.00;101613.13;5033633;28;20029;-76
2023/12/19 04:20:36;;;;;;;0.40;0.40;;;;;;;6.78;100.00;101620.56;5017241;28;20066;-76
2023/12/19 04:23:02;;;;;;;0.40;0.40;;;;;;;6.73;100.00;101629.97;5000757;28;20457;-76
2023/12/19 04:25:28;;;;;;;0.40;0.40;;;;;;;6.73;100.00;101636.16;5001293;28;20042;-76
2023/12/19 04:27:54;;;;;;;0.43;0.43;;;;;;;6.68;100.00;101635.69;5016375;28;20113;-76
2023/12/19 04:30:19;;;;;;;0.40;0.40;;;;;;;6.65;100.00;101638.63;5017055;28;20124;-76
2023/12/19 04:32:45;;;;;;;0.40;0.40;;;;;;;6.63;100.00;101643.25;5000891;28;20384;-76
2023/12/19 04:35:11;;;;;;;0.40;0.40;;;;;;;6.59;100.00;101639.97;5017067;28;20492;-76
2023/12/19 04:37:36;;;;;;;0.40;0.40;;;;;;;6.58;100.00;101645.44;5017023;28;20535;-77
2023/12/19 04:40:03;;;;;;;0.40;0.40;;;;;;;6.53;100.00;101651.16;5001082;28;20025;-77
2023/12/19 04:42:29;;;;;;;0.40;0.40;;;;;;;6.48;100.00;101640.00;5001079;28;20124;-76
2023/12/19 04:44:55;;;;;;;0.40;0.40;;;;;;;6.39;100.00;101635.44;5033290;28;20124;-77
2023/12/19 04:47:20;;;;;;;0.40;0.40;;;;;;;6.33;100.00;101638.63;5016599;28;20030;-77
2023/12/19 04:49:46;;;;;;;0.40;0.40;;;;;;;6.27;100.00;101650.69;5000863;28;20052;-77
2023/12/19 04:52:12;;;;;;;0.40;0.40;;;;;;;6.25;100.00;101657.13;5001010;28;20037;-77
2023/12/19 04:54:46;;;;;;;0.50;0.50;;;;;;;6.17;100.00;101655.06;5016899;28;20069;-76
2023/12/19 04:57:54;;;;;;;0.40;0.40;;;;;;;6.04;100.00;101631.19;5025556;28;20037;-76
2023/12/19 05:00:23;;;;;;;0.40;0.40;;;;;;;6.06;100.00;101628.38;5000337;28;20087;-76
2023/12/19 05:03:03;;;;;;;0.40;0.40;;;;;;;5.99;100.00;101628.03;5017364;28;20429;-76
2023/12/19 05:05:31;;;;;;;0.40;0.40;;;;;;;5.99;100.00;101641.38;5017183;28;20116;-76
2023/12/19 05:07:57;;;;;;;0.40;0.40;;;;;;;5.93;100.00;101641.84;5000696;28;20033;-77
2023/12/19 05:10:23;;;;;;;0.50;0.50;;;;;;;5.88;100.00;101641.38;5000326;28;20040;-77
2023/12/19 05:12:48;;;;;;;0.40;0.40;;;;;;;5.86;100.00;101643.31;5016618;28;20468;-76
2023/12/19 05:15:14;;;;;;;0.40;0.40;;;;;;;5.77;100.00;101649.38;5000417;28;20029;-77
2023/12/19 05:17:49;;;;;;;0.40;0.40;;;;;;;5.73;100.00;101646.13;5000011;28;20022;-77
2023/12/19 05:20:19;;;;;;;0.40;0.40;;;;;;;5.67;100.00;101650.13;5017034;28;20471;-76
2023/12/19 05:22:45;;;;;;;0.47;0.47;;;;;;;5.65;100.00;101664.56;5000225;28;20037;-77
2023/12/19 05:25:11;;;;;;;0.45;0.45;;;;;;;5.66;100.00;101664.44;5000188;28;20442;-77
2023/12/19 05:27:39;;;;;;;0.40;0.40;;;;;;;5.63;100.00;101669.16;5016292;28;20048;-77
2023/12/19 05:30:08;;;;;;;0.40;0.40;;;;;;;5.55;100.00;101664.41;5032439;28;20068;-77
2023/12/19 05:32:36;;;;;;;0.40;0.40;;;;;;;5.54;100.00;101669.91;5016419;28;20039;-76
2023/12/19 05:35:01;;;;;;;0.40;0.40;;;;;;;5.45;100.00;101672.31;5000231;28;20052;-76
2023/12/19 05:37:27;;;;;;;0.40;0.40;;;;;;;5.39;100.00;101664.78;5015541;28;20029;-77
2023/12/19 05:39:52;;;;;;;0.40;0.40;;;;;;;5.32;100.00;101663.59;5000036;28;20052;-77
2023/12/19 05:42:19;;;;;;;0.40;0.40;;;;;;;5.27;100.00;101676.41;4999325;28;20037;-77
2023/12/19 05:44:45;;;;;;;0.40;0.40;;;;;;;5.22;100.00;101682.09;5032065;28;20034;-76
2023/12/19 05:47:15;;;;;;;0.40;0.40;;;;;;;5.29;100.00;101678.00;4999624;28;20048;-76
2023/12/19 05:49:48;;;;;;;0.47;0.47;;;;;;;5.26;100.00;101677.38;5000689;28;20088;-77
2023/12/19 05:52:13;;;;;;;0.40;0.40;;;;;;;5.28;100.00;101697.63;5015654;28;20450;-77
2023/12/19 05:54:42;;;;;;;0.50;0.50;;;;;;;5.26;100.00;101699.53;5016128;28;20060;-77
2023/12/19 05:57:07;;;;;;;0.40;0.40;;;;;;;5.24;100.00;101706.84;4999738;28;20045;-77
2023/12/19 05:59:33;;;;;;;0.50;0.50;;;;;;;5.25;100.00;101713.84;4999877;28;20037;-77
2023/12/19 06:02:08;;;;;;;0.40;0.40;;;;;;;5.23;100.00;101717.59;5016199;28;20048;-77
2023/12/19 06:04:37;;;;;;;0.50;0.50;;;;;;;5.18;100.00;101719.78;5016529;28;20385;-77
2023/12/19 06:07:03;;;;;;;0.40;0.40;;;;;;;5.13;100.00;101722.78;5015763;28;20033;-77
2023/12/19 06:09:35;;;;;;;0.50;0.50;;;;;;;5.15;100.00;101718.19;4999840;28;20025;-77
2023/12/19 06:12:00;;;;;;;0.40;0.40;;;;;;;5.11;100.00;101727.41;4999791;28;20061;-76
2023/12/19 06:14:26;;;;;;;0.40;0.40;;;;;;;5.00;100.00;101740.66;4999167;28;20092;-77
2023/12/19 06:17:06;;;;;;;0.43;0.43;;;;;;;4.96;100.00;101745.41;5000039;28;20034;-77
2023/12/19 06:19:43;;;;;;;0.40;0.40;;;;;;;4.82;100.00;101722.44;5002490;28;20095;-77
2023/12/19 06:22:10;;;;;;;0.40;0.40;;;;;;;4.78;100.00;101720.13;5032296;28;20034;-77
2023/12/19 06:24:35;;;;;;;0.40;0.40;;;;;;;4.75;100.00;101731.84;4999766;28;20468;-77
2023/12/19 06:27:06;;;;;;;0.40;0.40;;;;;;;4.74;100.00;101735.50;4999542;28;20056;-77
2023/12/19 06:29:50;;;;;;;0.50;0.50;;;;;;;4.73;100.00;101741.78;4999754;28;20041;-77
2023/12/19 06:35:28;;;;;;;0.40;0.40;;;;;;;4.54;100.00;101770.75;5028643;28;20431;-77
2023/12/19 06:38:24;;;;;;;0.50;0.50;;;;;;;4.27;100.00;101762.94;4990402;28;20042;-77
2023/12/19 06:41:16;;;;;;;0.40;0.40;;;;;;;4.22;100.00;101783.72;5030471;28;20034;-77
2023/12/19 06:44:02;;;;;;;0.50;0.50;;;;;;;4.21;100.00;101771.34;5017175;28;20037;-76
2023/12/19 06:47:23;;;;;;;0.40;0.40;;;;;;;4.20;100.00;101762.50;5018430;28;20112;-77
2023/12/19 06:50:46;;;;;;;0.50;0.50;;;;;;;4.18;100.00;101785.72;5000799;28;20136;-77
2023/12/19 06:53:14;;;;;;;0.40;0.40;;;;;;;4.33;100.00;101807.75;5030937;28;20745;-77
2023/12/19 06:56:28;;;;;;;0.50;0.50;;;;;;;4.47;100.00;101788.97;5024294;28;20124;-77
2023/12/19 06:59:00;;;;;;;0.40;0.40;;;;;;;4.59;100.00;101790.75;5019349;28;20037;-78
2023/12/19 07:01:51;;;;;;;;;;;;;;;;;;;;;
2023/12/19 07:04:51;;;;;;;0.45;0.45;;;;;;;4.80;100.00;101803.47;5035441;28;20044;-77
2023/12/19 07:07:32;;;;;;;0.40;0.40;;;;;;;4.82;100.00;101790.88;5018748;28;20108;-77
2023/12/19 07:10:21;;;;;;;0.40;0.40;;;;;;;4.92;100.00;101809.69;5020131;28;20476;-77
2023/12/19 07:12:46;;;;;;;0.40;0.40;;;;;;;4.90;100.00;101820.50;5019287;28;20033;-77
2023/12/19 07:15:12;;;;;;;0.40;0.40;;;;;;;4.78;100.00;101816.03;5002711;28;20106;-77
2023/12/19 07:17:41;;;;;;;0.45;0.45;;;;;;;4.51;100.00;101817.09;5018475;28;20491;-77
2023/12/19 07:20:07;;;;;;;0.40;0.40;;;;;;;4.22;100.00;101823.66;5018709;28;20044;-77
2023/12/19 07:22:33;;;;;;;0.40;0.40;;;;;;;3.87;100.00;101827.81;5018649;28;20107;-77
2023/12/19 07:24:59;;;;;;;0.40;0.40;;;;;;;3.53;100.00;101826.59;5017941;28;20460;-77
2023/12/19 07:27:24;;;;;;;0.50;0.50;;;;;;;3.31;100.00;101821.91;5002242;28;20032;-77
2023/12/19 07:29:50;;;;;;;0.50;0.50;;;;;;;3.13;100.00;101820.47;5018718;28;20034;-77
2023/12/19 07:32:16;;;;;;;0.40;0.40;;;;;;;2.93;100.00;101822.59;5002782;28;20036;-77
2023/12/19 07:34:41;;;;;;;0.40;0.40;;;;;;;2.83;100.00;101824.16;5018104;28;20387;-79
2023/12/19 07:37:07;;;;;;;0.40;0.40;;;;;;;2.73;100.00;101820.41;5002129;28;20040;-77
2023/12/19 07:39:35;;;;;;;0.30;0.30;;;;;;;2.61;100.00;101825.53;5002055;28;20213;-77
2023/12/19 07:42:01;;;;;;;0.47;0.47;;;;;;;2.47;100.00;101825.56;5002001;28;20044;-77
2023/12/19 07:44:26;;;;;;;0.40;0.40;;;;;;;2.23;100.00;101830.63;5034515;28;20033;-78
2023/12/19 07:46:55;;;;;;;0.45;0.45;;;;;;;2.06;100.00;101833.44;5017678;28;20041;-78
2023/12/19 07:49:21;;;;;;;0.45;0.45;;;;;;;2.04;100.00;101838.88;5001785;28;20052;-78
2023/12/19 07:51:47;;;;;;;0.50;0.50;;;;;;;2.02;100.00;101846.06;5001649;28;20460;-78
2023/12/19 07:54:12;;;;;;;0.50;0.50;;;;;;;1.98;100.00;101834.78;5017910;28;20507;-77
2023/12/19 07:56:42;;;;;;;0.50;0.50;;;;;;;2.03;100.00;101837.16;5017899;28;20098;-78
2023/12/19 07:59:10;;;;;;;0.50;0.50;;;;;;;2.04;100.00;101843.31;5034289;28;20123;-77
2023/12/19 08:01:36;;;;;;;0.50;0.50;;;;;;;2.19;100.00;101845.00;5001446;28;20480;-78
2023/12/19 08:04:01;;;;;;;0.50;0.50;;;;;;;2.25;100.00;101842.00;5033299;28;20036;-78
2023/12/19 08:06:27;;;;;;;0.43;0.43;;;;;;;2.35;100.00;101848.41;5034366;28;20041;-77
2023/12/19 08:08:53;;;;;;;0.40;0.40;;;;;;;2.54;100.00;101863.19;5034088;28;20504;-78
2023/12/19 08:11:19;;;;;;;0.50;0.50;;;;;;;2.70;100.00;101861.28;5000987;28;20056;-78
2023/12/19 08:13:45;;;;;;;0.40;0.40;;;;;;;3.09;100.00;101849.88;5001406;28;20125;-77
2023/12/19 08:16:10;;;;;;;0.40;0.40;;;;;;;3.40;100.00;101849.66;5001443;28;20187;-77
2023/12/19 08:18:36;;;;;;;0.50;0.50;;;;;;;3.46;100.00;101847.44;5017796;28;20090;-77
2023/12/19 08:21:05;;;;;;;0.47;0.47;;;;;;;3.29;100.00;101855.69;5000842;28;20107;-78
2023/12/19 08:23:33;;;;;;;0.40;0.40;;;;;;;3.06;100.00;101865.16;5017467;28;20080;-78
2023/12/19 08:25:59;;;;;;;0.50;0.50;;;;;;;2.87;100.00;101865.50;5001366;28;20124;-78
2023/12/19 08:28:25;;;;;;;0.40;0.40;;;;;;;2.73;100.00;101870.88;5000405;28;20124;-77
2023/12/19 08:30:51;;;;;;;0.40;0.40;;;;;;;2.56;100.00;101862.16;5001144;28;20029;-78
2023/12/19 08:33:21;;;;;;;0.40;0.40;;;;;;;2.49;100.00;101860.84;5033443;28;20091;-78
2023/12/19 08:35:48;;;;;;;0.50;0.50;;;;;;;2.38;100.00;101858.88;5033606;28;20025;-78
2023/12/19 08:38:13;;;;;;;0.50;0.50;;;;;;;2.24;100.00;101864.16;5033420;28;20033;-77
2023/12/19 08:40:39;;;;;;;0.50;0.50;;;;;;;2.09;100.00;101865.97;5017082;28;20029;-78
2023/12/19 08:43:05;;;;;;;0.40;0.40;;;;;;;2.05;100.00;101874.22;5000613;28;20091;-78
2023/12/19 08:45:31;;;;;;;0.50;0.50;;;;;;;1.92;100.00;101864.31;5016910;28;20454;-77
2023/12/19 08:47:59;;;;;;;0.43;0.43;;;;;;;1.81;100.00;101864.13;5000112;28;20069;-77
2023/12/19 08:50:27;;;;;;;0.50;0.50;;;;;;;1.94;100.00;101874.84;5016946;28;20052;-77
2023/12/19 08:52:53;;;;;;;0.40;0.40;;;;;;;2.12;100.00;101873.75;5000533;28;20590;-78
2023/12/19 08:55:20;;;;;;;0.50;0.50;;;;;;;2.29;100.00;101863.88;5000868;28;20044;-77
2023/12/19 08:57:46;;;;;;;0.50;0.50;;;;;;;2.59;100.00;101869.06;5016465;28;20071;-78
2023/12/19 09:00:16;;;;;;;0.50;0.50;;;;;;;2.90;100.00;101875.09;4984570;28;20069;-78
2023/12/19 09:02:45;;;;;;;0.50;0.50;;;;;;;3.17;100.00;101877.75;5001031;28;20561;-78
2023/12/19 09:05:12;;;;;;;0.50;0.50;;;;;;;3.42;100.00;101883.16;5000286;28;20037;-78
2023/12/19 09:07:42;;;;;;;0.40;0.40;;;;;;;3.61;100.00;101882.78;5032622;28;20065;-78
2023/12/19 09:10:11;;;;;;;0.50;0.50;;;;;;;3.69;100.00;101888.44;5000858;28;20472;-78
2023/12/19 09:12:37;;;;;;;0.40;0.40;;;;;;;3.66;100.00;101901.09;4984346;28;20506;-78
2023/12/19 09:15:03;;;;;;;0.40;0.40;;;;;;;3.69;100.00;101895.56;4999945;28;20038;-78
2023/12/19 09:17:29;;;;;;;0.50;0.50;;;;;;;3.87;100.00;101909.44;5031851;28;20036;-78
2023/12/19 09:19:55;;;;;;;0.50;0.50;;;;;;;4.13;100.00;101905.00;5030555;28;20036;-78
2023/12/19 09:22:22;;;;;;;0.50;0.50;;;;;;;4.40;100.00;101900.41;5030535;28;20033;-78
2023/12/19 09:24:48;;;;;;;0.50;0.50;;;;;;;4.66;100.00;101905.72;4998109;28;20534;-78
2023/12/19 09:27:16;;;;;;;0.50;0.50;;;;;;;4.82;100.00;101910.81;4998289;28;20044;-78
2023/12/19 09:29:41;;;;;;;0.45;0.45;;;;;;;4.85;100.00;101908.75;5014869;28;20033;-79
2023/12/19 09:32:07;;;;;;;0.50;0.50;;;;;;;4.80;100.00;101910.91;4997874;28;20029;-78
2023/12/19 09:34:34;;;;;;;0.40;0.40;;;;;;;4.63;100.00;101909.44;4999887;28;20044;-78
2023/12/19 09:36:59;;;;;;;0.50;0.50;;;;;;;4.52;100.00;101906.66;4999891;28;20025;-78
2023/12/19 09:39:25;;;;;;;0.52;0.52;;;;;;;4.42;100.00;101902.97;4999592;28;20034;-77
2023/12/19 09:41:51;;;;;;;0.40;0.40;;;;;;;4.33;100.00;101890.28;5000160;28;20486;-78
2023/12/19 09:44:17;;;;;;;0.40;0.40;;;;;;;4.29;100.00;101902.97;5015931;28;20048;-78
2023/12/19 09:46:50;;;;;;;0.50;0.50;;;;;;;4.29;100.00;101902.97;5015737;28;20041;-78
2023/12/19 09:49:27;;;;;;;0.50;0.50;;;;;;;4.33;100.00;101900.94;5015189;28;20068;-80
2023/12/19 09:52:00;;;;;;;0.40;0.40;;;;;;;4.20;100.00;101900.94;5001318;28;20048;-81
2023/12/19 09:54:26;;;;;;;0.40;0.40;;;;;;;3.97;100.00;101895.41;4999279;28;20067;-80
2023/12/19 09:56:56;;;;;;;0.50;0.50;;;;;;;3.89;100.00;101887.09;5015501;28;20053;-80
2023/12/19 09:59:59;;;;;;;0.40;0.40;;;;;;;3.87;100.00;101902.31;5000290;28;20095;-81
2023/12/19 10:02:46;;;;;;;0.50;0.50;;;;;;;4.00;100.00;101882.84;5032375;28;20046;-80
2023/12/19 10:05:12;;;;;;;0.40;0.40;;;;;;;4.26;100.00;101900.53;5015757;28;20033;-80
2023/12/19 10:07:38;;;;;;;0.50;0.50;;;;;;;4.52;100.00;101896.00;5015319;28;20029;-80
2023/12/19 10:10:07;;;;;;;0.50;0.50;;;;;;;4.70;100.00;101901.00;4999508;28;20376;-81
2023/12/19 10:12:33;;;;;;;0.50;0.50;;;;;;;4.91;100.00;101909.28;5000016;28;20083;-81
2023/12/19 10:18:31;;;;;;;0.60;0.60;;;;;;;6.50;100.00;101896.41;5016144;28;20040;-81
2023/12/19 10:21:19;;;;;;;0.45;0.45;;;;;;;7.08;100.00;101898.88;4998866;28;20267;-81
2023/12/19 10:23:45;;;;;;;0.50;0.50;;;;;;;7.58;100.00;101901.88;5031162;28;20029;-81
2023/12/19 10:26:15;;;;;;;0.40;0.40;;;;;;;7.28;100.00;101906.13;5016471;28;20037;-81
2023/12/19 10:28:43;;;;;;;0.40;0.40;;;;;;;6.78;100.00;101914.59;5002649;28;20025;-81
2023/12/19 10:31:15;;;;;;;0.40;0.40;;;;;;;6.13;100.00;101918.81;5019628;28;20476;-81
2023/12/19 10:33:49;;;;;;;0.40;0.40;;;;;;;5.94;100.00;101915.88;5036070;28;20060;-81
2023/12/19 10:36:40;;;;;;;0.50;0.50;;;;;;;6.24;100.00;101925.16;5003070;28;20179;-81
2023/12/19 10:39:07;;;;;;;0.40;0.40;;;;;;;6.20;100.00;101929.88;5034447;28;20041;-80
2023/12/19 10:41:34;;;;;;;0.47;0.47;;;;;;;6.12;100.00;101949.16;5019179;28;20448;-81
2023/12/19 10:44:01;;;;;;;0.40;0.40;;;;;;;6.03;100.00;101952.53;5035484;28;20079;-81
2023/12/19 10:46:28;;;;;;;0.50;0.50;;;;;;;6.00;100.00;101943.91;5035269;28;20030;-80
2023/12/19 10:48:57;;;;;;;0.50;0.50;;;;;;;6.07;100.00;101940.66;5019092;28;20049;-78
2023/12/19 10:51:37;;;;;;;0.40;0.40;;;;;;;6.02;100.00;101932.16;5002718;28;20491;-78
2023/12/19 10:54:14;;;;;;;0.40;0.40;;;;;;;5.89;100.00;101913.50;5018714;28;20048;-78
2023/12/19 10:56:59;;;;;;;0.40;0.40;;;;;;;5.68;100.00;101909.81;5002802;28;20042;-78
2023/12/19 10:59:49;;;;;;;0.50;0.50;;;;;;;5.63;100.00;101915.47;5035659;28;20036;-78
2023/12/19 11:02:30;;;;;;;0.50;0.50;;;;;;;6.42;100.00;101921.03;5003330;28;20041;-79
2023/12/19 11:05:22;;;;;;;0.50;0.50;;;;;;;6.45;100.00;101923.47;5035018;28;20032;-79
2023/12/19 11:07:51;;;;;;;0.40;0.40;;;;;;;6.65;100.00;101926.41;5028030;28;20077;-79
2023/12/19 11:10:22;;;;;;;0.40;0.40;;;;;;;6.47;100.00;101932.22;5002648;28;20116;-79
2023/12/19 11:12:49;;;;;;;0.40;0.40;;;;;;;6.56;100.00;101931.50;5001881;28;20044;-77
2023/12/19 11:15:15;;;;;;;0.50;0.50;;;;;;;6.96;100.00;101935.47;5018771;28;20111;-76
2023/12/19 11:17:51;;;;;;;0.40;0.40;;;;;;;7.53;100.00;101942.41;5034897;28;20132;-77
2023/12/19 11:20:48;;;;;;;0.50;0.50;;;;;;;8.09;100.00;101934.09;5018597;28;20391;-76
2023/12/19 11:23:20;;;;;;;0.40;0.40;;;;;;;8.21;100.00;101928.72;5034423;28;20237;-77
2023/12/19 11:25:56;;;;;;;0.40;0.40;;;;;;;8.43;100.00;101936.59;5018561;28;20472;-79
2023/12/19 11:28:23;;;;;;;0.40;0.40;;;;;;;8.19;100.00;101930.66;5018801;28;20037;-77
2023/12/19 11:30:49;;;;;;;0.40;0.40;;;;;;;8.11;100.00;101926.78;5002426;28;20052;-78
2023/12/19 11:33:31;;;;;;;0.40;0.40;;;;;;;8.05;100.00;101921.13;5018038;28;20033;-77
2023/12/19 11:36:09;;;;;;;0.47;0.47;;;;;;;8.03;100.00;101920.41;5018081;28;20029;-78
2023/12/19 11:38:36;;;;;;;0.40;0.40;;;;;;;8.05;100.00;101918.44;5033622;28;20055;-78
2023/12/19 11:41:02;;;;;;;0.40;0.40;;;;;;;7.91;100.00;101917.78;5033611;28;20068;-77
2023/12/19 11:43:31;;;;;;;0.50;0.50;;;;;;;8.10;100.00;101916.22;4999402;28;20033;-78